createdAt,value
2023-06-09T00:00:56.496Z,4.25
2023-06-09T00:03:23.508Z,4.47
2023-06-09T00:05:50.665Z,4.32
2023-06-09T00:08:17.658Z,4.40
2023-06-09T00:10:44.452Z,4.35
2023-06-09T00:13:11.558Z,4.78
2023-06-09T00:15:40.447Z,4.60
2023-06-09T00:18:17.112Z,4.18
2023-06-09T00:20:44.258Z,4.43
2023-06-09T00:23:11.020Z,4.25
2023-06-09T00:25:37.871Z,4.57
2023-06-09T00:28:04.803Z,4.22
2023-06-09T00:30:39.517Z,4.80
2023-06-09T00:33:10.710Z,3.85
2023-06-09T00:35:37.489Z,3.88
2023-06-09T00:38:04.289Z,4.75
2023-06-09T00:40:31.168Z,4.40
2023-06-09T00:42:57.976Z,3.90
2023-06-09T00:45:24.668Z,4.68
2023-06-09T00:47:52.674Z,4.30
2023-06-09T00:50:21.523Z,4.13
2023-06-09T00:52:49.934Z,4.15
2023-06-09T00:55:19.256Z,4.00
2023-06-09T00:57:48.331Z,4.47
2023-06-09T01:00:17.490Z,4.43
2023-06-09T01:02:44.722Z,4.70
2023-06-09T01:05:13.995Z,4.43
2023-06-09T01:08:02.752Z,6.35
2023-06-09T01:10:58.219Z,5.53
2023-06-09T01:14:02.199Z,5.13
2023-06-09T01:16:45.278Z,5.93
2023-06-09T01:19:34.200Z,5.50
2023-06-09T01:22:07.619Z,5.07
2023-06-09T01:24:58.615Z,5.10
2023-06-09T01:27:27.093Z,4.75
2023-06-09T01:29:56.375Z,4.32
2023-06-09T01:32:25.065Z,5.28
2023-06-09T01:34:53.990Z,4.90
2023-06-09T01:37:21.301Z,6.07
2023-06-09T01:39:48.343Z,4.65
2023-06-09T01:42:14.966Z,4.43
2023-06-09T01:44:41.686Z,4.40
2023-06-09T01:47:08.779Z,4.88
2023-06-09T01:50:04.633Z,4.60
2023-06-09T01:52:50.502Z,5.30
2023-06-09T01:55:33.735Z,4.90
2023-06-09T01:58:10.543Z,4.28
2023-06-09T02:00:38.339Z,4.60
2023-06-09T02:03:10.522Z,4.35
2023-06-09T02:05:38.380Z,4.30
2023-06-09T02:08:05.764Z,4.10
2023-06-09T02:10:34.018Z,4.97
2023-06-09T02:13:19.989Z,4.93
2023-06-09T02:15:47.570Z,3.90
2023-06-09T02:18:16.272Z,4.07
2023-06-09T02:20:44.039Z,4.50
2023-06-09T02:23:11.880Z,3.70
2023-06-09T02:25:39.125Z,4.15
2023-06-09T02:28:07.315Z,4.25
2023-06-09T02:30:34.434Z,4.18
2023-06-09T02:33:01.695Z,4.35
2023-06-09T02:35:31.342Z,4.30
2023-06-09T02:38:02.254Z,4.88
2023-06-09T02:40:29.148Z,5.10
2023-06-09T02:42:55.837Z,4.93
2023-06-09T02:45:24.638Z,4.60
2023-06-09T02:47:52.109Z,4.43
2023-06-09T02:50:19.396Z,4.65
2023-06-09T02:52:46.107Z,4.93
2023-06-09T02:55:12.959Z,4.75
2023-06-09T02:57:39.761Z,4.07
2023-06-09T03:00:08.834Z,4.57
2023-06-09T03:02:35.799Z,4.80
2023-06-09T03:05:02.809Z,4.78
2023-06-09T03:07:29.475Z,5.32
2023-06-09T03:09:56.156Z,5.05
2023-06-09T03:12:23.057Z,4.72
2023-06-09T03:14:49.727Z,5.15
2023-06-09T03:17:18.674Z,5.00
2023-06-09T03:19:45.689Z,5.18
2023-06-09T03:22:12.467Z,5.05
2023-06-09T03:24:40.299Z,5.43
2023-06-09T03:27:07.119Z,5.68
2023-06-09T03:29:33.768Z,5.40
2023-06-09T03:32:00.470Z,5.07
2023-06-09T03:34:27.271Z,5.53
2023-06-09T03:36:53.862Z,5.30
2023-06-09T03:39:20.598Z,5.40
2023-06-09T03:41:47.392Z,5.40
2023-06-09T03:44:14.094Z,5.30
2023-06-09T03:46:40.934Z,5.32
2023-06-09T03:49:08.068Z,5.10
2023-06-09T03:51:34.824Z,5.15
2023-06-09T03:54:01.553Z,5.72
2023-06-09T03:56:28.146Z,5.72
2023-06-09T03:58:55.263Z,5.18
2023-06-09T04:01:22.522Z,5.10
2023-06-09T04:03:49.510Z,5.22
2023-06-09T04:06:16.267Z,5.47
2023-06-09T04:08:45.545Z,5.13
2023-06-09T04:11:12.446Z,5.30
2023-06-09T04:13:39.057Z,5.10
2023-06-09T04:16:06.557Z,4.82
2023-06-09T04:18:33.315Z,5.50
2023-06-09T04:21:00.031Z,6.40
2023-06-09T04:23:28.862Z,5.60
2023-06-09T04:25:56.043Z,5.75
2023-06-09T04:28:22.711Z,6.07
2023-06-09T04:30:51.366Z,5.63
2023-06-09T04:33:19.572Z,6.50
2023-06-09T04:35:48.014Z,6.10
2023-06-09T04:38:15.361Z,5.97
2023-06-09T04:40:42.361Z,5.88
2023-06-09T04:43:09.293Z,5.55
2023-06-09T04:45:36.891Z,5.95
2023-06-09T04:48:04.270Z,5.20
2023-06-09T04:50:33.925Z,5.35
2023-06-09T04:53:05.176Z,4.68
2023-06-09T04:55:32.422Z,4.78
2023-06-09T04:57:59.078Z,4.55
2023-06-09T05:00:28.077Z,4.10
2023-06-09T05:02:55.952Z,3.95
2023-06-09T05:05:22.782Z,3.80
2023-06-09T05:07:49.715Z,3.80
2023-06-09T05:10:16.860Z,4.90
2023-06-09T05:12:43.680Z,3.75
2023-06-09T05:15:11.187Z,3.63
2023-06-09T05:17:39.133Z,3.70
2023-06-09T05:20:09.460Z,4.18
2023-06-09T05:22:37.496Z,3.33
2023-06-09T05:25:04.922Z,3.40
2023-06-09T05:27:31.562Z,3.47
2023-06-09T05:29:58.523Z,3.72
2023-06-09T05:32:25.419Z,3.50
2023-06-09T05:34:52.162Z,3.38
2023-06-09T05:37:18.819Z,3.30
2023-06-09T05:39:45.898Z,2.80
2023-06-09T05:42:13.739Z,3.13
2023-06-09T05:44:40.540Z,2.78
2023-06-09T05:47:07.451Z,2.60
2023-06-09T05:49:35.516Z,2.70
2023-06-09T05:52:02.948Z,2.75
2023-06-09T05:54:29.819Z,2.83
2023-06-09T05:56:56.520Z,2.78
2023-06-09T05:59:24.358Z,2.60
2023-06-09T06:01:51.980Z,2.70
2023-06-09T06:04:18.937Z,2.85
2023-06-09T06:06:45.830Z,2.88
2023-06-09T06:09:12.968Z,2.45
2023-06-09T06:11:39.930Z,2.58
2023-06-09T06:14:06.657Z,2.30
2023-06-09T06:16:33.421Z,2.40
2023-06-09T06:19:00.188Z,2.78
2023-06-09T06:21:26.889Z,2.60
2023-06-09T06:23:53.519Z,2.40
2023-06-09T06:26:20.202Z,2.55
2023-06-09T06:28:47.417Z,2.75
2023-06-09T06:31:14.988Z,2.53
2023-06-09T06:33:42.921Z,2.38
2023-06-09T06:36:09.999Z,2.35
2023-06-09T06:38:36.740Z,2.70
2023-06-09T06:41:04.867Z,2.67
2023-06-09T06:43:31.745Z,2.88
2023-06-09T06:45:58.532Z,2.20
2023-06-09T06:48:27.935Z,2.22
2023-06-09T06:50:54.975Z,2.40
2023-06-09T06:53:21.933Z,2.05
2023-06-09T06:55:48.636Z,2.40
2023-06-09T06:58:15.882Z,2.42
2023-06-09T07:00:42.682Z,2.47
2023-06-09T07:03:10.568Z,2.00
2023-06-09T07:05:37.747Z,2.20
2023-06-09T07:08:04.888Z,2.13
2023-06-09T07:10:32.317Z,2.13
2023-06-09T07:12:59.094Z,2.28
2023-06-09T07:15:25.916Z,2.10
2023-06-09T07:17:52.642Z,2.08
2023-06-09T07:20:19.381Z,2.20
2023-06-09T07:22:51.743Z,2.30
2023-06-09T07:25:18.736Z,2.20
2023-06-09T07:27:45.659Z,2.08
2023-06-09T07:30:12.886Z,2.00
2023-06-09T07:32:42.316Z,2.10
2023-06-09T07:35:14.423Z,2.13
2023-06-09T07:37:43.502Z,2.25
2023-06-09T07:40:19.204Z,2.60
2023-06-09T07:42:48.764Z,2.28
2023-06-09T07:45:15.778Z,2.00
2023-06-09T07:47:42.566Z,2.00
2023-06-09T07:50:10.142Z,2.47
2023-06-09T07:52:39.984Z,2.05
2023-06-09T07:55:12.399Z,2.22
2023-06-09T07:57:41.784Z,2.28
2023-06-09T08:00:09.395Z,1.90
2023-06-09T08:02:43.096Z,1.73
2023-06-09T08:05:11.104Z,2.20
2023-06-09T08:07:38.406Z,1.88
2023-06-09T08:10:07.624Z,2.10
2023-06-09T08:12:36.341Z,2.25
2023-06-09T08:15:03.102Z,2.00
2023-06-09T08:17:29.885Z,2.05
2023-06-09T08:19:56.843Z,2.00
2023-06-09T08:22:23.468Z,1.90
2023-06-09T08:24:50.450Z,1.75
2023-06-09T08:27:17.126Z,1.83
2023-06-09T08:29:43.740Z,1.90
2023-06-09T08:32:10.420Z,2.00
2023-06-09T08:34:37.148Z,1.80
2023-06-09T08:37:04.784Z,1.88
2023-06-09T08:39:32.021Z,1.92
2023-06-09T08:42:01.799Z,2.10
2023-06-09T08:44:29.850Z,1.80
2023-06-09T08:47:03.525Z,2.30
2023-06-09T08:49:30.860Z,1.80
2023-06-09T08:51:59.713Z,1.85
2023-06-09T08:54:27.449Z,1.85
2023-06-09T08:56:54.340Z,1.90
2023-06-09T08:59:22.998Z,2.00
2023-06-09T09:01:51.270Z,1.70
2023-06-09T09:04:18.823Z,1.95
2023-06-09T09:06:47.071Z,2.10
2023-06-09T09:09:14.015Z,2.08
2023-06-09T09:11:41.099Z,1.70
2023-06-09T09:14:11.710Z,2.03
2023-06-09T09:16:38.668Z,1.80
2023-06-09T09:19:05.895Z,1.90
2023-06-09T09:21:35.666Z,1.67
2023-06-09T09:24:05.738Z,1.77
2023-06-09T09:26:33.481Z,2.05
2023-06-09T09:29:07.482Z,1.80
2023-06-09T09:31:37.394Z,1.73
2023-06-09T09:34:04.538Z,2.17
2023-06-09T09:36:32.054Z,1.70
2023-06-09T09:39:06.297Z,1.90
2023-06-09T09:41:33.126Z,1.90
2023-06-09T09:43:59.718Z,1.77
2023-06-09T09:46:26.635Z,1.70
2023-06-09T09:48:55.686Z,1.80
2023-06-09T09:51:22.883Z,1.75
2023-06-09T09:53:51.668Z,2.10
2023-06-09T09:56:22.950Z,1.98
2023-06-09T09:58:53.737Z,1.80
2023-06-09T10:01:28.422Z,2.03
2023-06-09T10:03:56.494Z,1.90
2023-06-09T10:06:28.696Z,1.83
2023-06-09T10:08:57.352Z,1.75
2023-06-09T10:11:29.574Z,2.00
2023-06-09T10:13:56.273Z,1.80
2023-06-09T10:16:24.565Z,2.00
2023-06-09T10:18:52.035Z,1.83
2023-06-09T10:21:19.297Z,1.85
2023-06-09T10:23:55.556Z,2.08
2023-06-09T10:26:27.062Z,1.80
2023-06-09T10:28:53.697Z,1.80
2023-06-09T10:31:22.551Z,1.80
2023-06-09T10:33:50.192Z,1.90
2023-06-09T10:36:17.227Z,1.70
2023-06-09T10:38:46.702Z,1.77
2023-06-09T10:41:29.439Z,1.80
2023-06-09T10:44:19.177Z,1.90
2023-06-09T10:46:51.935Z,1.77
2023-06-09T10:49:30.676Z,1.73
2023-06-09T10:51:57.364Z,1.90
2023-06-09T10:54:25.723Z,1.80
2023-06-09T10:57:04.973Z,1.80
2023-06-09T10:59:31.806Z,1.98
2023-06-09T11:02:05.167Z,2.33
2023-06-09T11:07:27.884Z,1.80
2023-06-09T11:09:57.534Z,1.85
2023-06-09T11:12:39.880Z,1.60
2023-06-09T11:15:08.868Z,1.90
2023-06-09T11:17:43.327Z,1.77
2023-06-09T11:20:10.433Z,1.80
2023-06-09T11:22:43.949Z,1.60
2023-06-09T11:25:20.537Z,2.00
2023-06-09T11:28:10.727Z,2.38
2023-06-09T11:31:01.743Z,1.90
2023-06-09T11:33:46.796Z,1.92
2023-06-09T11:36:31.885Z,1.67
2023-06-09T11:39:08.214Z,1.83
2023-06-09T11:41:35.154Z,1.65
2023-06-09T11:44:01.831Z,1.63
2023-06-09T11:46:28.700Z,1.38
2023-06-09T11:48:59.934Z,1.80
2023-06-09T11:51:26.812Z,1.67
2023-06-09T11:53:53.974Z,2.05
2023-06-09T11:56:21.149Z,2.00
2023-06-09T11:58:47.893Z,1.70
2023-06-09T12:01:14.542Z,1.60
2023-06-09T12:03:41.561Z,2.10
2023-06-09T12:06:09.314Z,1.70
2023-06-09T12:08:35.926Z,2.17
2023-06-09T12:11:03.476Z,2.00
2023-06-09T12:13:30.127Z,2.17
2023-06-09T12:15:56.874Z,1.80
2023-06-09T12:18:23.724Z,1.80
2023-06-09T12:20:52.284Z,2.00
2023-06-09T12:23:19.213Z,1.80
2023-06-09T12:25:50.929Z,2.00
2023-06-09T12:28:27.494Z,2.10
2023-06-09T12:30:56.022Z,2.10
2023-06-09T12:33:31.360Z,1.92
2023-06-09T12:36:12.212Z,2.08
2023-06-09T12:38:45.113Z,1.90
2023-06-09T12:41:14.030Z,2.17
2023-06-09T12:44:01.669Z,2.15
2023-06-09T12:46:29.802Z,1.90
2023-06-09T12:49:04.728Z,2.28
2023-06-09T12:51:33.154Z,2.05
2023-06-09T12:54:00.542Z,1.83
2023-06-09T12:56:27.844Z,1.95
2023-06-09T12:58:55.594Z,2.22
2023-06-09T13:01:23.596Z,1.90
2023-06-09T13:03:51.503Z,2.17
2023-06-09T13:06:18.830Z,2.10
2023-06-09T13:08:46.308Z,2.40
2023-06-09T13:11:13.433Z,1.80
2023-06-09T13:13:46.670Z,2.02
2023-06-09T13:16:13.357Z,2.05
2023-06-09T13:18:40.831Z,2.40
2023-06-09T13:21:07.905Z,1.90
2023-06-09T13:23:34.685Z,2.13
2023-06-09T13:26:01.659Z,1.90
2023-06-09T13:28:28.787Z,2.35
2023-06-09T13:30:55.692Z,2.17
2023-06-09T13:33:22.729Z,2.20
2023-06-09T13:35:50.049Z,2.10
2023-06-09T13:38:16.737Z,2.50
2023-06-09T13:40:46.673Z,2.60
2023-06-09T13:43:17.424Z,2.63
2023-06-09T13:45:44.378Z,2.40
2023-06-09T13:48:12.354Z,2.60
2023-06-09T13:50:40.390Z,2.70
2023-06-09T13:53:10.628Z,2.90
2023-06-09T13:55:37.348Z,2.72
2023-06-09T13:58:04.425Z,2.90
2023-06-09T14:00:31.022Z,2.83
2023-06-09T14:02:57.957Z,2.80
2023-06-09T14:05:26.235Z,2.75
2023-06-09T14:07:53.057Z,2.33
2023-06-09T14:10:20.586Z,2.35
2023-06-09T14:12:49.665Z,2.60
2023-06-09T14:17:50.930Z,2.55
2023-06-09T14:20:22.425Z,2.08
2023-06-09T14:22:51.150Z,2.42
2023-06-09T14:25:27.429Z,2.22
2023-06-09T14:27:55.008Z,2.63
2023-06-09T14:30:22.895Z,2.35
2023-06-09T14:32:52.485Z,2.33
2023-06-09T14:35:23.849Z,2.20
2023-06-09T14:37:52.561Z,2.60
2023-06-09T14:40:19.723Z,2.42
2023-06-09T14:42:50.073Z,2.03
2023-06-09T14:45:24.236Z,2.40
2023-06-09T14:48:01.630Z,2.40
2023-06-09T14:50:32.835Z,2.63
2023-06-09T14:52:59.994Z,2.67
2023-06-09T14:55:31.766Z,2.42
2023-06-09T14:58:01.210Z,2.70
2023-06-09T15:00:28.888Z,2.50
2023-06-09T15:02:57.615Z,2.30
2023-06-09T15:05:27.510Z,2.40
2023-06-09T15:07:56.240Z,3.20
2023-06-09T15:10:27.340Z,1.80
2023-06-09T15:12:54.364Z,2.05
2023-06-09T15:15:23.486Z,2.28
2023-06-09T15:17:51.012Z,2.13
2023-06-09T15:20:18.456Z,2.30
2023-06-09T15:22:45.166Z,2.38
2023-06-09T15:25:12.214Z,2.30
2023-06-09T15:27:41.237Z,2.20
2023-06-09T15:30:08.801Z,2.60
2023-06-09T15:32:35.866Z,2.10
2023-06-09T15:35:02.622Z,2.10
2023-06-09T15:37:29.277Z,2.50
2023-06-09T15:39:56.704Z,2.03
2023-06-09T15:42:23.992Z,2.30
2023-06-09T15:44:50.693Z,2.42
2023-06-09T15:47:17.444Z,2.00
2023-06-09T15:49:44.425Z,2.53
2023-06-09T15:52:11.088Z,2.63
2023-06-09T15:54:37.700Z,2.67
2023-06-09T15:57:04.963Z,2.47
2023-06-09T15:59:31.673Z,2.90
2023-06-09T16:01:58.383Z,2.40
2023-06-09T16:04:25.246Z,2.30
2023-06-09T16:06:52.697Z,2.35
2023-06-09T16:09:19.558Z,2.50
2023-06-09T16:11:46.441Z,2.40
2023-06-09T16:14:13.142Z,2.70
2023-06-09T16:16:39.837Z,2.90
2023-06-09T16:19:06.567Z,2.92
2023-06-09T16:21:34.235Z,2.40
2023-06-09T16:24:02.995Z,2.33
2023-06-09T16:26:29.739Z,2.65
2023-06-09T16:28:56.394Z,2.45
2023-06-09T16:31:23.078Z,2.70
2023-06-09T16:33:49.793Z,2.67
2023-06-09T16:36:16.506Z,2.58
2023-06-09T16:38:43.625Z,2.60
2023-06-09T16:41:10.963Z,4.20
2023-06-09T16:43:40.836Z,3.33
2023-06-09T16:46:07.738Z,2.75
2023-06-09T16:48:37.391Z,3.17
2023-06-09T16:51:04.594Z,3.10
2023-06-09T16:53:31.680Z,3.28
2023-06-09T16:55:59.032Z,2.45
2023-06-09T16:58:25.717Z,2.53
2023-06-09T17:00:52.375Z,2.83
2023-06-09T17:03:19.274Z,2.33
2023-06-09T17:05:46.003Z,2.67
2023-06-09T17:08:13.060Z,2.63
2023-06-09T17:10:39.939Z,2.60
2023-06-09T17:13:06.965Z,2.65
2023-06-09T17:15:33.991Z,2.40
2023-06-09T17:18:01.135Z,2.90
2023-06-09T17:20:28.806Z,2.72
2023-06-09T17:22:55.786Z,2.67
2023-06-09T17:25:22.964Z,2.80
2023-06-09T17:27:49.807Z,2.55
2023-06-09T17:30:16.628Z,2.30
2023-06-09T17:32:45.024Z,2.88
2023-06-09T17:35:21.642Z,2.53
2023-06-09T17:37:48.426Z,2.83
2023-06-09T17:40:15.522Z,2.50
2023-06-09T17:42:42.548Z,2.58
2023-06-09T17:45:11.461Z,2.80
2023-06-09T17:47:39.170Z,2.72
2023-06-09T17:50:07.338Z,3.17
2023-06-09T17:52:35.508Z,2.50
2023-06-09T17:55:04.576Z,2.53
2023-06-09T17:57:32.082Z,2.72
2023-06-09T18:00:00.478Z,3.17
2023-06-09T18:02:27.649Z,2.75
2023-06-09T18:04:54.567Z,2.80
2023-06-09T18:07:21.347Z,3.00
2023-06-09T18:09:48.054Z,3.13
2023-06-09T18:12:14.935Z,3.25
2023-06-09T18:14:41.890Z,2.95
2023-06-09T18:17:08.614Z,3.03
2023-06-09T18:19:36.889Z,2.78
2023-06-09T18:22:04.364Z,2.88
2023-06-09T18:24:31.116Z,3.53
2023-06-09T18:26:58.116Z,2.65
2023-06-09T18:29:24.813Z,3.10
2023-06-09T18:31:51.419Z,3.30
2023-06-09T18:34:18.124Z,3.20
2023-06-09T18:36:45.078Z,3.30
2023-06-09T18:39:11.710Z,3.10
2023-06-09T18:41:38.487Z,3.60
2023-06-09T18:44:17.712Z,3.80
2023-06-09T18:46:45.262Z,3.40
2023-06-09T18:49:12.326Z,3.47
2023-06-09T18:51:39.180Z,3.80
2023-06-09T18:54:06.110Z,4.15
2023-06-09T18:56:33.152Z,4.20
2023-06-09T18:59:00.297Z,4.32
2023-06-09T19:01:27.465Z,4.00
2023-06-09T19:03:54.406Z,4.20
2023-06-09T19:06:21.288Z,4.47
2023-06-09T19:08:48.198Z,4.72
2023-06-09T19:11:15.026Z,4.07
2023-06-09T19:13:41.914Z,4.30
2023-06-09T19:16:08.614Z,4.15
2023-06-09T19:18:35.398Z,4.50
2023-06-09T19:21:02.984Z,4.47
2023-06-09T19:23:29.697Z,4.43
2023-06-09T19:25:56.535Z,5.40
2023-06-09T19:28:23.549Z,4.28
2023-06-09T19:30:50.616Z,4.38
2023-06-09T19:33:17.398Z,4.38
2023-06-09T19:35:44.181Z,4.05
2023-06-09T19:38:11.140Z,4.20
2023-06-09T19:40:37.844Z,4.82
2023-06-09T19:43:04.540Z,4.95
2023-06-09T19:45:31.192Z,3.73
2023-06-09T19:47:57.885Z,3.10
2023-06-09T19:50:24.526Z,4.00
2023-06-09T19:52:52.225Z,4.05
2023-06-09T19:55:18.988Z,3.85
2023-06-09T19:57:45.873Z,3.88
2023-06-09T20:00:15.179Z,4.03
2023-06-09T20:02:42.474Z,4.00
2023-06-09T20:05:09.870Z,3.80
2023-06-09T20:07:36.773Z,3.70
2023-06-09T20:10:03.429Z,4.53
2023-06-09T20:12:30.184Z,4.63
2023-06-09T20:14:56.904Z,4.82
2023-06-09T20:17:23.814Z,4.63
2023-06-09T20:19:50.819Z,4.43
2023-06-09T20:22:19.209Z,4.30
2023-06-09T20:24:46.112Z,3.88
2023-06-09T20:27:12.959Z,3.33
2023-06-09T20:29:39.734Z,3.75
2023-06-09T20:32:07.067Z,3.90
2023-06-09T20:34:33.766Z,3.55
2023-06-09T20:37:00.783Z,3.40
2023-06-09T20:39:27.417Z,3.63
2023-06-09T20:41:54.249Z,4.00
2023-06-09T20:44:21.524Z,4.10
2023-06-09T20:46:48.393Z,4.35
2023-06-09T20:49:16.895Z,3.55
2023-06-09T20:51:44.132Z,4.18
2023-06-09T20:54:16.076Z,3.80
2023-06-09T20:56:42.996Z,3.88
2023-06-09T20:59:09.770Z,4.20
2023-06-09T21:01:37.148Z,3.70
2023-06-09T21:04:04.874Z,3.97
2023-06-09T21:06:35.847Z,4.20
2023-06-09T21:09:05.353Z,3.83
2023-06-09T21:11:32.407Z,3.63
2023-06-09T21:13:59.392Z,4.00
2023-06-09T21:16:26.370Z,4.53
2023-06-09T21:18:53.105Z,4.15
2023-06-09T21:21:19.814Z,4.15
2023-06-09T21:23:46.581Z,4.85
2023-06-09T21:26:13.604Z,4.60
2023-06-09T21:28:43.081Z,4.63
2023-06-09T21:31:11.957Z,3.58
2023-06-09T21:33:39.039Z,3.53
2023-06-09T21:36:06.651Z,3.50
2023-06-09T21:38:40.492Z,3.65
2023-06-09T21:41:07.681Z,3.90
2023-06-09T21:43:34.416Z,4.38
2023-06-09T21:46:08.518Z,3.83
2023-06-09T21:48:35.534Z,4.32
2023-06-09T21:51:02.158Z,3.80
2023-06-09T21:53:35.206Z,3.50
2023-06-09T21:56:02.056Z,4.32
2023-06-09T21:58:28.839Z,4.30
2023-06-09T22:01:02.449Z,4.75
2023-06-09T22:03:29.299Z,4.30
2023-06-09T22:06:16.093Z,4.53
2023-06-09T22:08:49.623Z,4.25
2023-06-09T22:11:23.398Z,4.18
2023-06-09T22:13:50.149Z,4.22
2023-06-09T22:16:17.066Z,3.72
2023-06-09T22:18:52.036Z,4.30
2023-06-09T22:21:18.892Z,4.22
2023-06-09T22:23:45.601Z,3.60
2023-06-09T22:26:19.187Z,3.70
2023-06-09T22:28:46.056Z,3.92
2023-06-09T22:31:14.479Z,4.30
2023-06-09T22:33:48.078Z,3.40
2023-06-09T22:36:15.746Z,3.50
2023-06-09T22:38:42.376Z,3.00
2023-06-09T22:41:16.049Z,3.80
2023-06-09T22:43:42.711Z,3.20
2023-06-09T22:46:09.383Z,2.80
2023-06-09T22:48:45.114Z,3.85
2023-06-09T22:51:11.819Z,4.70
2023-06-09T22:53:38.485Z,3.95
2023-06-09T22:56:12.242Z,4.30
2023-06-09T22:58:39.154Z,3.80
2023-06-09T23:01:06.042Z,4.07
2023-06-09T23:03:42.051Z,3.72
2023-06-09T23:06:18.425Z,3.63
2023-06-09T23:08:59.045Z,3.85
2023-06-09T23:11:26.578Z,3.95
2023-06-09T23:13:54.251Z,4.40
2023-06-09T23:16:28.055Z,3.97
2023-06-09T23:18:54.975Z,3.60
2023-06-09T23:21:23.293Z,3.80
2023-06-09T23:24:00.108Z,3.95
2023-06-09T23:26:27.504Z,4.07
2023-06-09T23:28:54.078Z,4.10
2023-06-09T23:31:28.010Z,3.92
2023-06-09T23:33:54.720Z,4.03
2023-06-09T23:36:21.422Z,4.38
2023-06-09T23:38:55.176Z,4.07
2023-06-09T23:41:22.585Z,4.00
2023-06-09T23:43:49.232Z,4.70
2023-06-09T23:46:23.619Z,5.30
2023-06-09T23:48:50.995Z,4.10
2023-06-09T23:51:18.438Z,4.30
2023-06-09T23:53:52.183Z,4.63
2023-06-09T23:56:19.169Z,4.45
2023-06-09T23:58:45.832Z,4.43
